Time;durP1;ratioP1;P1;durP2;ratioP2;P2;SDS_P1;SDS_P2;PMS_P1;PMS_P2;Temp;Humidity;BMP_temperature;BMP_pressure;BME280_temperature;BME280_humidity;BME280_pressure;Samples;Min_cycle;Max_cycle;Signal;HPM_P1;HPM_P2
2022/04/08 00:00:24;;;;;;;16.00;1.60;;;;;;;20.00;49.46;96905.41;7313084;19;158990;-36
2022/04/08 00:02:50;;;;;;;15.67;1.40;;;;;;;20.03;50.15;96925.09;7313801;19;158438;-33
2022/04/08 00:05:15;;;;;;;17.60;1.65;;;;;;;20.02;50.60;96926.06;7312709;19;128993;-35
2022/04/08 00:07:41;;;;;;;22.42;2.20;;;;;;;20.05;50.48;96915.25;7313647;19;152977;-41
2022/04/08 00:10:07;;;;;;;18.13;1.77;;;;;;;19.98;50.69;96904.00;7314159;19;129407;-39
2022/04/08 00:12:33;;;;;;;20.17;1.92;;;;;;;20.02;50.75;96911.25;7314951;19;129559;-43
2022/04/08 00:14:59;;;;;;;16.73;1.70;;;;;;;20.06;50.48;96911.66;7313030;19;129659;-45
2022/04/08 00:17:24;;;;;;;13.10;1.23;;;;;;;19.99;50.09;96913.44;7312749;19;129010;-37
2022/04/08 00:19:50;;;;;;;14.25;1.30;;;;;;;19.69;48.92;96909.47;7313744;19;129210;-38
2022/04/08 00:22:18;;;;;;;20.60;2.03;;;;;;;19.66;48.29;96905.47;7311529;19;159444;-42
2022/04/08 00:24:43;;;;;;;15.10;1.42;;;;;;;19.69;48.48;96899.03;7312405;19;129001;-40
2022/04/08 00:27:08;;;;;;;18.98;1.80;;;;;;;19.64;48.08;96901.41;7314423;19;129028;-35
2022/04/08 00:29:33;;;;;;;30.55;2.97;;;;;;;19.59;47.79;96893.38;7309919;19;139843;-37
2022/04/08 00:31:59;;;;;;;18.30;1.55;;;;;;;19.70;47.57;96900.66;7312387;19;147023;-37
2022/04/08 00:34:25;;;;;;;22.30;2.00;;;;;;;19.71;47.45;96902.28;7311887;19;129105;-36
2022/04/08 00:36:51;;;;;;;21.35;2.05;;;;;;;19.61;47.95;96883.56;7312057;19;129459;-35
2022/04/08 00:39:16;;;;;;;13.20;1.17;;;;;;;19.72;47.95;96896.06;7315179;19;130235;-34
2022/04/08 00:41:41;;;;;;;14.35;1.27;;;;;;;19.73;47.64;96895.88;7312120;19;158651;-44
2022/04/08 00:44:07;;;;;;;22.30;2.10;;;;;;;19.64;47.37;96888.38;7312381;19;129235;-37
2022/04/08 00:46:32;;;;;;;21.48;1.95;;;;;;;19.80;47.88;96908.94;7313803;19;129156;-36
2022/04/08 00:48:58;;;;;;;12.70;1.13;;;;;;;19.76;47.73;96902.50;7313511;19;129138;-47
2022/04/08 00:51:23;;;;;;;19.05;1.85;;;;;;;19.78;47.33;96905.72;7311634;19;159192;-33
2022/04/08 00:53:48;;;;;;;17.98;1.65;;;;;;;19.75;47.71;96895.69;7312040;19;129247;-38
2022/04/08 00:56:14;;;;;;;23.80;2.13;;;;;;;19.80;47.38;96908.94;7313077;19;129514;-36
2022/04/08 00:58:40;;;;;;;11.63;1.03;;;;;;;20.03;47.30;96918.06;7313063;19;129437;-36
2022/04/08 01:01:05;;;;;;;9.73;1.08;;;;;;;19.98;48.26;96909.22;7312323;19;129238;-32
2022/04/08 01:03:31;;;;;;;16.67;1.38;;;;;;;19.95;48.94;96915.63;7311475;19;129009;-37
2022/04/08 01:05:57;;;;;;;26.63;2.55;;;;;;;19.97;49.92;96925.84;7312098;19;129054;-36
2022/04/08 01:08:22;;;;;;;15.23;1.40;;;;;;;20.01;50.18;96925.28;7313814;19;129216;-38
2022/04/08 01:10:49;;;;;;;6.90;0.77;;;;;;;19.93;49.44;96922.81;7310488;19;159283;-37
2022/04/08 01:13:14;;;;;;;;;;;;;;;20.10;51.52;96939.75;7314332;19;129322;-35
2022/04/08 01:15:39;;;;;;;20.13;2.10;;;;;;;20.06;50.76;96941.16;7311112;19;128987;-32
2022/04/08 01:18:05;;;;;;;18.77;1.70;;;;;;;20.05;50.94;96956.97;7311660;19;129114;-42
2022/04/08 01:20:31;;;;;;;17.27;1.77;;;;;;;20.03;51.19;96959.78;7313257;19;129296;-38
2022/04/08 01:22:56;;;;;;;4.10;0.57;;;;;;;20.03;51.45;96972.03;7314157;19;129015;-34
2022/04/08 01:25:21;;;;;;;17.40;1.65;;;;;;;20.03;50.47;96979.88;7308396;19;153959;-39
2022/04/08 01:27:46;;;;;;;16.00;1.48;;;;;;;19.69;48.82;96983.25;7312489;19;158302;-34
2022/04/08 01:30:12;;;;;;;37.00;3.53;;;;;;;19.62;48.24;96994.66;7310430;19;159284;-40
2022/04/08 01:32:37;;;;;;;20.10;1.85;;;;;;;19.66;48.72;97003.69;7312553;19;129120;-37
2022/04/08 01:35:04;;;;;;;23.90;2.17;;;;;;;19.68;47.72;97006.91;7310830;19;129431;-32
2022/04/08 01:37:30;;;;;;;6.05;0.50;;;;;;;19.64;47.80;97023.91;7309890;19;129348;-39
2022/04/08 01:39:55;;;;;;;19.38;1.70;;;;;;;19.72;48.20;97029.00;7313010;19;129300;-43
2022/04/08 01:42:24;;;;;;;8.60;0.80;;;;;;;19.70;48.25;97054.47;7317741;19;155361;-38
2022/04/08 01:44:52;;;;;;;20.25;1.73;;;;;;;19.73;48.41;97047.06;7315776;19;129047;-42
2022/04/08 01:47:17;;;;;;;15.88;1.38;;;;;;;19.73;48.00;97046.25;7318724;19;129090;-38
2022/04/08 01:49:42;;;;;;;18.63;1.77;;;;;;;19.71;48.03;97045.63;7319614;19;130019;-35
2022/04/08 01:52:08;;;;;;;20.20;1.88;;;;;;;19.78;47.63;97069.94;7317049;19;147241;-42
2022/04/08 01:54:33;;;;;;;13.60;1.23;;;;;;;19.77;47.73;97063.09;7316113;19;154033;-34
2022/04/08 01:56:59;;;;;;;17.65;1.65;;;;;;;19.77;47.36;97074.34;7316401;19;158855;-38
2022/04/08 01:59:24;;;;;;;8.98;0.82;;;;;;;19.78;47.22;97072.56;7317067;19;159060;-43
2022/04/08 02:01:49;;;;;;;17.33;1.53;;;;;;;19.68;47.22;97062.47;7316354;19;140703;-44
2022/04/08 02:04:14;;;;;;;20.83;1.87;;;;;;;20.03;47.59;97078.97;7315443;19;154209;-43
2022/04/08 02:06:42;;;;;;;15.52;1.45;;;;;;;19.98;49.60;97083.94;7316479;19;129172;-35
2022/04/08 02:09:08;;;;;;;3.63;0.50;;;;;;;19.97;50.21;97077.91;7318862;19;129641;-38
2022/04/08 02:11:35;;;;;;;19.92;1.88;;;;;;;19.90;50.29;97065.84;7316624;19;129147;-39
2022/04/08 02:14:00;;;;;;;14.43;1.40;;;;;;;20.00;50.28;97085.34;7317269;19;129684;-34
2022/04/08 02:16:26;;;;;;;34.70;2.90;;;;;;;20.02;50.48;97090.38;7315732;19;129147;-39
2022/04/08 02:18:51;;;;;;;22.65;2.22;;;;;;;20.04;50.66;97101.44;7317835;19;129627;-37
2022/04/08 02:21:22;;;;;;;14.05;1.17;;;;;;;19.97;50.58;97105.78;7316015;19;155445;-36
2022/04/08 02:23:48;;;;;;;7.20;0.93;;;;;;;20.06;50.60;97115.09;7316716;19;128955;-34
2022/04/08 02:26:14;;;;;;;16.50;1.52;;;;;;;20.05;51.46;97118.69;7317734;19;129483;-38
2022/04/08 02:28:40;;;;;;;17.67;1.58;;;;;;;19.96;50.17;97112.00;7317923;19;130172;-41
2022/04/08 02:31:05;;;;;;;13.30;1.27;;;;;;;19.66;48.92;97115.75;7315664;19;154533;-40
2022/04/08 02:33:31;;;;;;;17.23;1.75;;;;;;;19.63;48.67;97119.56;7316019;19;128838;-38
2022/04/08 02:35:56;;;;;;;15.32;1.40;;;;;;;19.64;48.43;97115.94;7317115;19;128975;-35
2022/04/08 02:38:21;;;;;;;14.70;1.20;;;;;;;19.69;48.36;97128.41;7313720;19;158452;-41
2022/04/08 02:40:46;;;;;;;21.10;1.98;;;;;;;19.68;48.04;97139.84;7314819;19;154347;-36
2022/04/08 02:43:12;;;;;;;27.55;2.67;;;;;;;19.72;48.36;97133.28;7315455;19;154452;-41
2022/04/08 02:45:37;;;;;;;22.42;2.08;;;;;;;19.70;47.57;97135.25;7314650;19;158467;-33
2022/04/08 02:48:03;;;;;;;21.92;2.17;;;;;;;19.62;47.24;97132.78;7317064;19;129194;-36
2022/04/08 02:50:28;;;;;;;15.68;1.20;;;;;;;19.72;47.70;97143.69;7316216;19;128831;-40
2022/04/08 02:52:53;;;;;;;66.32;6.63;;;;;;;19.74;47.72;97149.50;7315725;19;129178;-38
2022/04/08 02:55:18;;;;;;;37.33;4.32;;;;;;;19.75;47.27;97157.16;7312117;19;129531;-36
2022/04/08 02:57:47;;;;;;;32.17;3.05;;;;;;;19.78;47.01;97163.81;7312207;19;158480;-42
2022/04/08 03:00:18;;;;;;;18.45;1.65;;;;;;;19.79;47.56;97170.63;7316054;19;128972;-39
2022/04/08 03:02:44;;;;;;;18.98;1.73;;;;;;;19.94;48.26;97148.69;7316517;19;129029;-35
2022/04/08 03:05:10;;;;;;;23.05;2.00;;;;;;;19.96;49.13;97164.16;7315114;19;129403;-35
2022/04/08 03:07:36;;;;;;;15.60;1.40;;;;;;;19.95;49.73;97170.38;7315323;19;129564;-37
2022/04/08 03:10:07;;;;;;;28.67;2.90;;;;;;;19.97;51.00;97184.00;7316992;19;128826;-37
2022/04/08 03:12:32;;;;;;;17.15;1.52;;;;;;;19.97;50.90;97181.41;7316471;19;129471;-35
2022/04/08 03:14:59;;;;;;;14.65;1.33;;;;;;;20.01;50.89;97174.84;7314543;19;129266;-43
2022/04/08 03:17:24;;;;;;;16.67;1.53;;;;;;;20.00;51.14;97194.88;7313972;19;129250;-39
2022/04/08 03:19:50;;;;;;;20.20;2.03;;;;;;;20.03;51.80;97214.59;7315721;19;128873;-33
2022/04/08 03:22:19;;;;;;;16.10;1.42;;;;;;;20.05;51.29;97196.91;7316524;19;129080;-37
2022/04/08 03:24:45;;;;;;;15.93;1.50;;;;;;;20.02;51.91;97198.13;7315069;19;130721;-42
2022/04/08 03:27:10;;;;;;;21.35;1.88;;;;;;;20.02;51.46;97197.28;7316485;19;129537;-36
2022/04/08 03:29:35;;;;;;;24.87;2.27;;;;;;;19.83;48.97;97203.97;7314424;19;154535;-38
2022/04/08 03:32:00;;;;;;;16.87;1.57;;;;;;;19.67;48.40;97201.59;7314803;19;154184;-35
2022/04/08 03:34:26;;;;;;;13.67;1.50;;;;;;;19.66;48.73;97212.19;7312277;19;159424;-34
2022/04/08 03:36:51;;;;;;;14.70;1.27;;;;;;;19.69;48.20;97212.63;7312754;19;158179;-39
2022/04/08 03:39:17;;;;;;;16.58;1.50;;;;;;;19.67;47.64;97203.41;7314772;19;154215;-33
2022/04/08 03:41:42;;;;;;;16.97;1.53;;;;;;;19.68;47.47;97220.66;7314294;19;128988;-43
2022/04/08 03:44:08;;;;;;;18.87;1.73;;;;;;;19.70;47.76;97235.09;7313890;19;158466;-37
2022/04/08 03:46:33;;;;;;;29.77;2.72;;;;;;;19.66;48.01;97230.44;7314151;19;143221;-38
2022/04/08 03:48:58;;;;;;;13.30;1.23;;;;;;;19.70;47.58;97239.53;7315875;19;154419;-44
2022/04/08 03:51:24;;;;;;;4.30;0.47;;;;;;;19.73;48.05;97244.38;7313814;19;129069;-40
2022/04/08 03:53:49;;;;;;;14.73;1.25;;;;;;;19.71;47.79;97235.91;7313727;19;129263;-38
2022/04/08 03:56:14;;;;;;;21.93;2.03;;;;;;;19.70;47.78;97235.09;7314427;19;157862;-38
2022/04/08 03:58:39;;;;;;;20.40;1.87;;;;;;;19.74;47.12;97251.19;7313089;19;154874;-44
2022/04/08 04:01:04;;;;;;;15.70;1.53;;;;;;;19.75;47.54;97253.59;7313418;19;154771;-36
2022/04/08 04:03:30;;;;;;;12.03;1.07;;;;;;;19.95;48.13;97251.22;7309748;19;159035;-41
2022/04/08 04:05:55;;;;;;;22.73;2.00;;;;;;;19.92;48.64;97241.94;7311616;19;157269;-37
2022/04/08 04:08:20;;;;;;;22.73;2.10;;;;;;;19.84;49.57;97236.03;7313818;19;154698;-43
2022/04/08 04:10:47;;;;;;;20.05;1.85;;;;;;;19.96;49.80;97252.81;7313070;19;147442;-32
2022/04/08 04:13:12;;;;;;;23.15;2.22;;;;;;;19.96;50.54;97260.66;7315074;19;129749;-34
2022/04/08 04:15:38;;;;;;;14.00;1.55;;;;;;;20.02;51.17;97265.94;7313622;19;129148;-31
2022/04/08 04:18:03;;;;;;;25.35;2.50;;;;;;;20.01;50.64;97271.31;7311446;19;129776;-38
2022/04/08 04:20:29;;;;;;;13.98;1.27;;;;;;;20.01;51.04;97279.16;7313538;19;129205;-49
2022/04/08 04:22:54;;;;;;;19.33;1.83;;;;;;;20.00;51.23;97264.50;7310709;19;129373;-43
2022/04/08 04:25:20;;;;;;;32.17;3.10;;;;;;;19.92;51.22;97262.81;7310843;19;158672;-33
2022/04/08 04:27:45;;;;;;;26.83;2.45;;;;;;;20.04;50.94;97278.78;7312769;19;154555;-41
2022/04/08 04:30:10;;;;;;;26.63;2.72;;;;;;;19.82;49.38;97290.97;7311041;19;154415;-40
2022/04/08 04:32:36;;;;;;;21.33;2.17;;;;;;;19.66;48.41;97291.22;7313088;19;130157;-39
2022/04/08 04:35:06;;;;;;;20.85;1.85;;;;;;;19.61;48.71;97303.16;7309879;19;129972;-37
2022/04/08 04:37:41;;;;;;;8.10;0.77;;;;;;;19.66;48.57;97298.22;7313170;19;129364;-36
2022/04/08 04:40:08;;;;;;;27.95;2.53;;;;;;;19.65;47.56;97304.44;7312711;19;130117;-36
2022/04/08 04:42:33;;;;;;;26.30;2.58;;;;;;;19.68;47.94;97304.06;7313162;19;129346;-41
2022/04/08 04:44:58;;;;;;;27.13;2.15;;;;;;;19.70;48.23;97318.50;7309988;19;129104;-40
2022/04/08 04:47:24;;;;;;;14.23;1.27;;;;;;;19.69;47.84;97316.91;7312286;19;129152;-34
2022/04/08 04:49:49;;;;;;;46.60;4.83;;;;;;;19.72;47.89;97315.75;7311117;19;154077;-37
2022/04/08 04:52:15;;;;;;;19.58;1.77;;;;;;;19.72;47.81;97326.19;7310189;19;129726;-34
2022/04/08 04:54:42;;;;;;;21.90;1.80;;;;;;;19.67;47.66;97310.28;7311714;19;129487;-35
2022/04/08 04:57:08;;;;;;;16.83;1.60;;;;;;;19.77;47.60;97334.22;7309465;19;129755;-39
2022/04/08 04:59:34;;;;;;;24.23;2.30;;;;;;;19.81;48.23;97332.88;7310432;19;153935;-34
2022/04/08 05:01:59;;;;;;;25.07;2.47;;;;;;;19.95;48.03;97348.50;7310817;19;129544;-41
2022/04/08 05:04:24;;;;;;;20.10;1.70;;;;;;;19.92;49.47;97343.66;7310648;19;131436;-34
2022/04/08 05:06:50;;;;;;;3.53;0.47;;;;;;;19.90;49.83;97350.06;7309340;19;146010;-39
2022/04/08 05:09:15;;;;;;;17.58;1.55;;;;;;;19.89;50.20;97348.41;7311419;19;129094;-35
2022/04/08 05:11:40;;;;;;;26.67;2.43;;;;;;;19.99;50.65;97359.38;7309036;19;158448;-41
2022/04/08 05:14:06;;;;;;;22.50;1.90;;;;;;;19.98;51.10;97368.19;7310084;19;153112;-35
2022/04/08 05:16:31;;;;;;;51.22;4.25;;;;;;;20.01;50.61;97362.59;7308269;19;129397;-40
2022/04/08 05:18:56;;;;;;;19.83;1.83;;;;;;;20.00;50.94;97372.22;7309118;19;153477;-39
2022/04/08 05:21:22;;;;;;;24.58;2.20;;;;;;;20.00;50.72;97369.63;7308892;19;131612;-35
2022/04/08 05:23:47;;;;;;;13.38;1.13;;;;;;;20.03;49.57;97378.88;7311089;19;129707;-36
2022/04/08 05:26:13;;;;;;;6.05;0.70;;;;;;;20.02;51.48;97385.06;7308956;19;129149;-39
2022/04/08 05:28:39;;;;;;;26.07;2.63;;;;;;;19.81;49.46;97387.63;7311786;19;131449;-38
2022/04/08 05:31:04;;;;;;;16.03;1.43;;;;;;;19.64;48.95;97396.63;7310254;19;158558;-39
2022/04/08 05:33:29;;;;;;;12.40;1.07;;;;;;;19.60;48.18;97400.59;7310578;19;159601;-39
2022/04/08 05:35:54;;;;;;;20.37;1.87;;;;;;;19.63;47.99;97400.22;7311932;19;153812;-41
2022/04/08 05:38:20;;;;;;;4.60;0.53;;;;;;;19.66;48.25;97412.91;7309882;19;142736;-35
2022/04/08 05:40:45;;;;;;;16.70;1.40;;;;;;;19.64;48.32;97412.25;7310856;19;158299;-42
2022/04/08 05:43:10;;;;;;;18.97;1.87;;;;;;;19.64;48.07;97415.69;7310639;19;158263;-35
2022/04/08 05:45:36;;;;;;;16.47;1.43;;;;;;;19.70;47.78;97422.00;7311042;19;154707;-39
2022/04/08 05:48:05;;;;;;;17.08;1.60;;;;;;;19.66;47.45;97416.31;7312175;19;128961;-43
2022/04/08 05:50:30;;;;;;;27.23;2.55;;;;;;;19.68;47.41;97434.38;7311430;19;130078;-37
2022/04/08 05:52:56;;;;;;;20.60;1.90;;;;;;;19.69;47.77;97425.56;7311592;19;129307;-34
2022/04/08 05:55:21;;;;;;;33.00;3.05;;;;;;;19.71;47.52;97418.38;7307898;19;154824;-38
2022/04/08 05:57:47;;;;;;;16.17;1.48;;;;;;;19.72;47.83;97423.41;7310486;19;129485;-35
2022/04/08 06:00:14;;;;;;;23.30;2.03;;;;;;;19.74;47.62;97438.88;7311395;19;130546;-35
2022/04/08 06:02:43;;;;;;;19.98;1.85;;;;;;;19.74;47.67;97428.44;7309543;19;129400;-38
2022/04/08 06:05:09;;;;;;;73.40;7.28;;;;;;;19.77;47.51;97443.72;7300118;19;129163;-45
2022/04/08 06:07:35;;;;;;;26.35;2.15;;;;;;;19.66;47.57;97426.75;7303657;19;129861;-35
2022/04/08 06:10:01;;;;;;;15.35;1.60;;;;;;;19.99;47.63;97448.84;7305219;19;129553;-41
2022/04/08 06:12:27;;;;;;;19.77;1.75;;;;;;;19.92;49.20;97449.75;7311371;19;129546;-39
2022/04/08 06:14:53;;;;;;;18.95;1.67;;;;;;;19.92;49.09;97454.97;7305113;19;129034;-40
2022/04/08 06:17:18;;;;;;;22.13;1.92;;;;;;;19.95;50.02;97455.41;7309146;19;128863;-42
2022/04/08 06:19:46;;;;;;;68.88;6.38;;;;;;;19.98;50.18;97462.09;7306120;19;130458;-36
2022/04/08 06:22:12;;;;;;;18.75;1.73;;;;;;;19.97;50.13;97463.88;7306568;19;129449;-40
2022/04/08 06:24:37;;;;;;;26.48;2.58;;;;;;;19.98;51.08;97467.31;7308657;19;130417;-40
2022/04/08 06:27:02;;;;;;;9.23;1.08;;;;;;;20.01;50.31;97466.94;7311669;19;128752;-44
2022/04/08 06:29:27;;;;;;;18.85;1.83;;;;;;;20.01;51.06;97479.97;7318255;19;130737;-43
2022/04/08 06:31:53;;;;;;;20.60;1.93;;;;;;;20.01;51.35;97487.78;7316322;19;156828;-36
2022/04/08 06:34:18;;;;;;;16.10;1.53;;;;;;;20.00;51.43;97473.16;7316392;19;139930;-34
2022/04/08 06:36:43;;;;;;;27.50;2.43;;;;;;;19.96;50.02;97490.13;7315505;19;155747;-37
2022/04/08 06:39:08;;;;;;;12.77;1.43;;;;;;;19.67;48.02;97487.53;7315024;19;158281;-40
2022/04/08 06:41:34;;;;;;;19.08;1.67;;;;;;;19.65;49.38;97497.31;7315402;19;129855;-33
2022/04/08 06:44:00;;;;;;;15.75;1.35;;;;;;;19.65;48.43;97497.31;7317418;19;129122;-34
2022/04/08 06:46:25;;;;;;;17.70;1.52;;;;;;;19.65;48.36;97502.53;7317043;19;128852;-41
2022/04/08 06:48:50;;;;;;;16.88;1.67;;;;;;;19.65;48.29;97492.09;7316266;19;144635;-31
2022/04/08 06:51:16;;;;;;;17.47;1.60;;;;;;;19.68;47.72;97508.19;7315316;19;158768;-40
2022/04/08 06:53:41;;;;;;;20.98;2.08;;;;;;;19.67;48.00;97516.19;7317196;19;128945;-38
2022/04/08 06:56:07;;;;;;;19.85;1.75;;;;;;;19.71;48.03;97533.09;7315665;19;153822;-37
2022/04/08 06:58:38;;;;;;;15.93;1.43;;;;;;;19.71;47.40;97522.66;7314367;19;158483;-34
2022/04/08 07:01:04;;;;;;;18.05;1.70;;;;;;;19.61;48.11;97506.47;7315442;19;129915;-36
2022/04/08 07:03:29;;;;;;;23.90;2.20;;;;;;;19.74;47.33;97522.31;7316240;19;128899;-38
2022/04/08 07:05:54;;;;;;;23.40;1.97;;;;;;;19.64;47.36;97526.97;7315053;19;154037;-41
2022/04/08 07:08:19;;;;;;;12.63;1.10;;;;;;;19.71;47.37;97548.72;7315146;19;159149;-33
2022/04/08 07:10:45;;;;;;;20.40;1.67;;;;;;;19.73;47.14;97546.75;7316275;19;130357;-38
2022/04/08 07:13:10;;;;;;;22.25;2.08;;;;;;;19.91;47.71;97547.22;7314603;19;155324;-40
2022/04/08 07:15:35;;;;;;;16.73;1.60;;;;;;;19.98;48.35;97542.94;7315345;19;128906;-35
2022/04/08 07:18:03;;;;;;;15.20;1.33;;;;;;;19.92;48.80;97572.31;7313603;19;158643;-38
2022/04/08 07:20:28;;;;;;;19.30;1.83;;;;;;;19.89;49.61;97555.25;7316549;19;130459;-41
2022/04/08 07:22:54;;;;;;;15.57;1.30;;;;;;;19.94;50.29;97549.47;7316245;19;129171;-35
2022/04/08 07:25:20;;;;;;;25.77;2.38;;;;;;;19.95;50.43;97561.56;7313077;19;128804;-34
2022/04/08 07:27:46;;;;;;;13.93;1.33;;;;;;;19.95;50.57;97556.34;7315821;19;129165;-34
2022/04/08 07:30:13;;;;;;;16.17;1.55;;;;;;;19.96;51.07;97557.94;7315619;19;129464;-34
2022/04/08 07:32:38;;;;;;;21.60;1.75;;;;;;;19.98;51.12;97561.97;7316170;19;129172;-34
2022/04/08 07:35:05;;;;;;;17.17;1.58;;;;;;;19.95;51.29;97564.94;7314363;19;129172;-32
2022/04/08 07:37:31;;;;;;;19.83;2.00;;;;;;;19.96;51.28;97570.97;7315020;19;129464;-44
2022/04/08 07:39:57;;;;;;;13.35;1.20;;;;;;;19.95;51.12;97571.97;7315582;19;129641;-37
2022/04/08 07:42:26;;;;;;;17.50;1.60;;;;;;;19.66;48.79;97577.13;7316136;19;128776;-42
2022/04/08 07:44:51;;;;;;;15.55;1.35;;;;;;;19.60;48.64;97583.03;7314133;19;128944;-36
2022/04/08 07:47:19;;;;;;;13.02;1.02;;;;;;;19.61;48.34;97589.88;7315585;19;129199;-32
2022/04/08 07:49:45;;;;;;;21.92;2.10;;;;;;;19.61;48.04;97587.25;7315014;19;129521;-36
2022/04/08 07:52:10;;;;;;;14.63;1.63;;;;;;;19.62;48.25;97581.09;7313885;19;154454;-45
2022/04/08 07:54:35;;;;;;;17.23;1.60;;;;;;;19.64;47.90;97599.94;7312848;19;154014;-41
2022/04/08 07:57:00;;;;;;;17.40;1.37;;;;;;;19.68;47.84;97599.44;7314082;19;148213;-37
2022/04/08 07:59:26;;;;;;;23.75;2.30;;;;;;;19.68;47.30;97599.44;7311606;19;139118;-40
2022/04/08 08:01:51;;;;;;;20.05;1.73;;;;;;;19.67;48.07;97597.00;7314154;19;154571;-34
2022/04/08 08:04:16;;;;;;;20.05;1.63;;;;;;;19.70;48.05;97601.88;7312615;19;154564;-33
2022/04/08 08:06:42;;;;;;;12.60;1.40;;;;;;;19.67;47.87;97610.03;7313177;19;158372;-42
2022/04/08 08:09:07;;;;;;;19.13;1.73;;;;;;;19.70;47.86;97614.91;7315150;19;129261;-34
2022/04/08 08:11:32;;;;;;;16.03;1.47;;;;;;;19.71;47.54;97611.28;7312720;19;155665;-37
2022/04/08 08:13:58;;;;;;;8.57;0.93;;;;;;;19.90;48.03;97589.97;7313169;19;153248;-43
2022/04/08 08:16:23;;;;;;;14.13;1.23;;;;;;;19.90;49.06;97613.44;7313580;19;129159;-35
2022/04/08 08:18:49;;;;;;;23.23;2.25;;;;;;;19.88;49.71;97612.78;7312503;19;130232;-37
2022/04/08 08:21:15;;;;;;;18.20;1.87;;;;;;;19.83;50.99;97604.69;7313245;19;129206;-40
2022/04/08 08:23:40;;;;;;;21.33;1.90;;;;;;;19.92;49.97;97617.47;7312130;19;154819;-40
2022/04/08 08:26:05;;;;;;;19.80;2.03;;;;;;;19.97;50.19;97619.53;7312747;19;158237;-31
2022/04/08 08:28:30;;;;;;;13.70;1.13;;;;;;;19.87;51.09;97605.94;7313501;19;143343;-40
2022/04/08 08:30:56;;;;;;;17.30;1.63;;;;;;;19.98;51.04;97621.97;7312082;19;154953;-34
2022/04/08 08:33:21;;;;;;;25.70;2.23;;;;;;;19.97;51.00;97632.56;7312882;19;154367;-35
2022/04/08 08:35:47;;;;;;;3.80;0.50;;;;;;;19.97;50.90;97627.34;7312620;19;142843;-45
2022/04/08 08:38:12;;;;;;;20.30;2.05;;;;;;;19.98;51.42;97634.22;7312675;19;130119;-41
2022/04/08 08:40:41;;;;;;;15.43;1.48;;;;;;;19.78;49.19;97643.50;7312621;19;156247;-32
2022/04/08 08:43:07;;;;;;;17.10;1.55;;;;;;;19.62;48.87;97643.63;7315158;19;129252;-38
2022/04/08 08:45:32;;;;;;;25.10;2.38;;;;;;;19.62;48.47;97638.44;7310629;19;130117;-36
2022/04/08 08:48:02;;;;;;;15.23;1.40;;;;;;;19.62;48.15;97638.44;7315102;19;129297;-34
2022/04/08 08:50:29;;;;;;;15.23;1.48;;;;;;;19.61;48.37;97650.63;7310955;19;129486;-40
2022/04/08 08:52:55;;;;;;;7.13;0.85;;;;;;;19.64;48.18;97657.28;7313546;19;129156;-31
2022/04/08 08:55:20;;;;;;;26.80;2.60;;;;;;;19.64;48.22;97646.84;7310864;19;129554;-35
2022/04/08 08:57:47;;;;;;;16.50;1.50;;;;;;;19.66;47.56;97644.91;7313190;19;130008;-36
2022/04/08 09:00:15;;;;;;;;;;;;;;;19.65;48.12;97649.28;7314032;19;129001;-33
2022/04/08 09:02:45;;;;;;;16.52;1.55;;;;;;;19.69;47.71;97649.75;7313813;19;128790;-36
2022/04/08 09:05:14;;;;;;;21.25;2.00;;;;;;;19.58;47.33;97637.13;7311232;19;129224;-38
2022/04/08 09:07:40;;;;;;;25.83;2.22;;;;;;;19.59;47.37;97643.97;7312937;19;130947;-38
2022/04/08 09:10:07;;;;;;;31.70;2.92;;;;;;;19.69;47.12;97663.63;7312433;19;129239;-36
2022/04/08 09:12:32;;;;;;;18.42;1.75;;;;;;;19.70;47.54;97662.63;7313422;19;129017;-37
2022/04/08 09:15:00;;;;;;;14.07;1.20;;;;;;;19.72;47.98;97670.28;7310800;19;129799;-40
2022/04/08 09:17:27;;;;;;;18.25;1.50;;;;;;;19.73;47.66;97677.13;7312028;19;129897;-38
2022/04/08 09:19:58;;;;;;;21.98;2.15;;;;;;;19.96;47.96;97662.25;7309952;19;129142;-36
2022/04/08 09:22:32;;;;;;;6.28;0.65;;;;;;;19.91;49.16;97672.41;7313692;19;128968;-31
2022/04/08 09:25:25;;;;;;;9.77;1.02;;;;;;;19.88;50.09;97659.72;7310582;19;130721;-38
2022/04/08 09:27:50;;;;;;;18.13;1.67;;;;;;;19.90;50.33;97655.16;7311428;19;129369;-47
2022/04/08 09:30:19;;;;;;;17.17;1.55;;;;;;;19.93;51.26;97652.19;7312412;19;129451;-34
2022/04/08 09:32:45;;;;;;;20.02;1.88;;;;;;;19.94;50.76;97653.78;7313081;19;129407;-34
2022/04/08 09:35:18;;;;;;;15.43;1.40;;;;;;;19.93;51.55;97652.19;7310729;19;129065;-36
2022/04/08 09:37:53;;;;;;;20.25;1.83;;;;;;;19.94;51.78;97659.00;7312798;19;129532;-39
2022/04/08 09:40:19;;;;;;;21.08;2.03;;;;;;;19.94;51.45;97664.22;7312429;19;128955;-40
2022/04/08 09:42:47;;;;;;;25.60;2.25;;;;;;;19.97;49.52;97658.66;7312521;19;129725;-34
2022/04/08 09:45:13;;;;;;;18.00;1.70;;;;;;;19.97;50.32;97653.44;7311089;19;130745;-37
2022/04/08 09:47:39;;;;;;;14.57;1.38;;;;;;;19.63;48.41;97660.88;7312225;19;131246;-42
2022/04/08 09:50:05;;;;;;;26.90;2.50;;;;;;;19.56;48.91;97650.34;7311184;19;129305;-37
2022/04/08 09:52:31;;;;;;;13.00;1.13;;;;;;;19.57;48.13;97659.00;7312151;19;128947;-35
2022/04/08 09:54:59;;;;;;;18.80;1.73;;;;;;;19.60;47.91;97664.66;7309598;19;129296;-35
2022/04/08 09:57:29;;;;;;;14.50;1.20;;;;;;;19.61;48.12;97647.22;7311366;19;129511;-36
2022/04/08 09:59:58;;;;;;;14.98;1.33;;;;;;;19.63;47.71;97660.88;7308834;19;128744;-35
2022/04/08 10:02:26;;;;;;;4.05;0.65;;;;;;;19.64;47.59;97659.91;7314658;19;129484;-35
2022/04/08 10:04:54;;;;;;;20.58;2.05;;;;;;;19.64;47.60;97659.91;7316877;19;130233;-42
2022/04/08 10:07:20;;;;;;;17.88;1.58;;;;;;;19.57;47.75;97651.16;7317923;19;129281;-36
2022/04/08 10:09:58;;;;;;;26.50;2.63;;;;;;;19.69;47.55;97654.97;7317188;19;129857;-32
2022/04/08 10:12:39;;;;;;;16.67;1.52;;;;;;;19.71;47.17;97653.00;7318306;19;129039;-38
2022/04/08 10:15:16;;;;;;;18.20;1.65;;;;;;;19.72;47.84;97659.84;7317015;19;129580;-34
2022/04/08 10:17:42;;;;;;;14.18;1.38;;;;;;;19.69;47.22;97652.38;7317159;19;129340;-41
2022/04/08 10:20:18;;;;;;;22.63;2.13;;;;;;;19.72;47.40;97649.44;7317420;19;140642;-36
2022/04/08 10:22:44;;;;;;;20.02;1.73;;;;;;;19.76;47.09;97663.72;7318847;19;129253;-39
2022/04/08 10:25:17;;;;;;;17.73;1.63;;;;;;;19.95;47.59;97669.25;7315501;19;147286;-35
2022/04/08 10:27:44;;;;;;;18.83;1.80;;;;;;;19.94;48.54;97672.06;7318180;19;130476;-43
2022/04/08 10:30:20;;;;;;;16.42;1.50;;;;;;;19.87;49.70;97678.94;7316813;19;129043;-35
2022/04/08 10:32:47;;;;;;;21.33;2.13;;;;;;;19.88;49.44;97672.75;7318762;19;129273;-32
2022/04/08 10:35:18;;;;;;;14.77;1.42;;;;;;;19.79;50.42;97660.75;7314735;19;129161;-43
2022/04/08 10:37:57;;;;;;;18.92;1.70;;;;;;;19.89;51.12;97672.59;7318672;19;131348;-36
2022/04/08 10:40:29;;;;;;;16.10;1.35;;;;;;;19.91;50.97;97660.19;7318753;19;129002;-31
2022/04/08 10:42:56;;;;;;;16.92;1.70;;;;;;;19.92;50.97;97671.41;7317766;19;128952;-37
2022/04/08 10:45:21;;;;;;;26.70;2.83;;;;;;;19.91;50.09;97669.81;7315174;19;130814;-34
2022/04/08 10:47:48;;;;;;;17.02;1.55;;;;;;;19.90;50.63;97658.53;7315769;19;158398;-40
2022/04/08 10:50:25;;;;;;;14.60;1.30;;;;;;;19.93;51.83;97657.41;7317087;19;128806;-34
2022/04/08 10:53:01;;;;;;;;;;;;;;;19.81;49.21;97657.00;7317969;19;129026;-44
2022/04/08 10:55:26;;;;;;;24.10;2.67;;;;;;;19.58;48.48;97665.81;7315075;19;129168;-37
2022/04/08 10:57:56;;;;;;;15.52;1.48;;;;;;;19.58;48.05;97650.19;7316502;19;158572;-37
2022/04/08 11:00:22;;;;;;;14.43;1.30;;;;;;;19.61;48.04;97655.03;7316326;19;129330;-33
2022/04/08 11:02:47;;;;;;;14.00;1.30;;;;;;;19.60;47.71;97661.25;7318336;19;128917;-41
2022/04/08 11:05:15;;;;;;;15.48;1.48;;;;;;;19.59;48.29;97647.38;7314008;19;142533;-50
2022/04/08 11:07:43;;;;;;;7.63;0.82;;;;;;;19.63;47.80;97645.25;7317210;19;129558;-40
2022/04/08 11:10:20;;;;;;;28.88;2.63;;;;;;;19.67;48.29;97641.31;7317165;19;130027;-36
2022/04/08 11:12:47;;;;;;;14.00;1.27;;;;;;;19.65;47.47;97638.88;7316425;19;128987;-43
2022/04/08 11:15:23;;;;;;;16.88;1.50;;;;;;;19.65;47.79;97638.06;7315775;19;129102;-49